Mostly Cloudy Current Weather (METAR) For Bournemouth Airport

All times on the weather descriptions are local

Observed at 22:50 - (18 mins ago)

Mostly Cloudy

17°C

Mostly Cloudy
Clouds: Scattered Clouds at 2,600ft, Broken Clouds at 4,300ft
Wind: 250° at 12 knots
Visibility: Greater than 10km
QNH: 1015
Dew Point: 14°C
Runway in Use: Runway 26

Sunrise Today: 06:15
Sunset Today: 20:00

Forecast Weather (TAF) For Bournemouth Airport

Issued at 01:00 - (1 day 1 hr ago)


Runway in Use: Unable to determine, wind is clam

Forecast valid until 01:00 on Sunday

METAR/TAF RAW METAR / TAF

EGHH 292150Z 25012KT 9999 SCT026 BKN043 17/14 Q1015

Weather Widget

Put weather from any of our airports on your website with our weather widget.

Find Another Search

Airport Search


Please Wait Please Wait - Loading
Close
Close

Login

Username:

Password:

Remember Me:

Remember me on this computer

Forgotten your password? Get a reset password sent to your registered e-mail address

Close

User Private Message

Subject:

Message: